createdAt,value
2023-11-12T00:01:25.157Z,34.70
2023-11-12T00:03:54.785Z,35.00
2023-11-12T00:06:24.293Z,34.90
2023-11-12T00:08:53.787Z,34.80
2023-11-12T00:11:25.833Z,35.10
2023-11-12T00:13:56.549Z,35.50
2023-11-12T00:16:27.290Z,34.60
2023-11-12T00:18:57.087Z,35.20
2023-11-12T00:21:28.724Z,34.90
2023-11-12T00:23:58.740Z,28.90
2023-11-12T00:26:28.655Z,27.00
2023-11-12T00:28:58.583Z,23.00
2023-11-12T00:31:28.645Z,24.30
2023-11-12T00:33:58.143Z,24.20
2023-11-12T00:36:28.088Z,23.20
2023-11-12T00:38:59.188Z,25.30
2023-11-12T00:41:29.248Z,22.00
2023-11-12T00:43:59.862Z,22.50
2023-11-12T00:46:30.200Z,22.20
2023-11-12T03:23:51.711Z,14.70
2023-11-12T03:26:21.763Z,14.40
2023-11-12T03:28:51.704Z,14.60
2023-11-12T03:31:21.764Z,14.70
2023-11-12T03:33:51.329Z,14.50
2023-11-12T03:36:22.394Z,14.00
2023-11-12T03:38:52.313Z,14.00
2023-11-12T03:41:23.031Z,14.40
2023-11-12T03:43:53.062Z,14.40
2023-11-12T03:46:23.194Z,14.30
2023-11-12T03:48:52.665Z,14.70
2023-11-12T03:51:22.199Z,14.70
2023-11-12T03:53:52.394Z,14.90
2023-11-12T03:56:22.915Z,15.10
2023-11-12T03:58:52.583Z,14.30
2023-11-12T04:01:22.110Z,14.20
2023-11-12T04:03:53.042Z,14.50
2023-11-12T04:06:23.069Z,15.00
2023-11-12T04:08:53.264Z,14.40
2023-11-12T04:11:22.850Z,14.20
2023-11-12T04:13:53.556Z,14.40
2023-11-12T04:16:23.504Z,14.50
2023-11-12T04:18:53.434Z,14.40
2023-11-12T04:21:22.953Z,15.10
2023-11-12T06:42:13.289Z,18.00
2023-11-12T06:44:43.145Z,18.20
2023-11-12T06:47:12.675Z,18.10
2023-11-12T06:49:43.278Z,18.20
2023-11-12T06:52:13.107Z,18.20
2023-11-12T06:54:43.639Z,18.40
2023-11-12T06:57:13.592Z,18.40
2023-11-12T06:59:44.044Z,18.80
2023-11-12T07:02:14.128Z,18.20
2023-11-12T07:04:44.883Z,18.00
2023-11-12T07:07:17.128Z,18.20
2023-11-12T07:09:50.012Z,18.40
2023-11-12T07:12:19.713Z,18.40
2023-11-12T07:14:50.533Z,18.60
2023-11-12T07:17:20.107Z,18.60
2023-11-12T07:19:49.613Z,19.10
2023-11-12T07:22:19.123Z,19.20
2023-11-12T07:24:48.636Z,19.40
2023-11-12T07:27:18.164Z,19.60
2023-11-12T07:29:48.412Z,19.80
2023-11-12T07:32:17.910Z,20.00
2023-11-12T07:34:47.903Z,20.20
2023-11-12T07:37:17.392Z,20.60
2023-11-12T07:39:47.355Z,20.60
2023-11-12T08:11:47.445Z,22.40
2023-11-12T08:14:18.123Z,23.00
2023-11-12T08:16:48.173Z,22.80
2023-11-12T08:19:17.670Z,23.10
2023-11-12T08:21:48.467Z,23.60
2023-11-12T08:24:18.595Z,24.00
2023-11-12T08:26:48.517Z,24.20
2023-11-12T08:29:20.008Z,23.70
2023-11-12T08:31:49.700Z,24.00
2023-11-12T08:34:24.059Z,24.30
2023-11-12T08:36:55.008Z,24.10
2023-11-12T08:39:26.345Z,24.40
2023-11-12T08:41:55.871Z,24.50
2023-11-12T08:44:25.365Z,25.00
2023-11-12T08:46:55.377Z,24.70
2023-11-12T08:49:24.899Z,24.90
2023-11-12T08:51:55.079Z,25.50
2023-11-12T08:54:26.829Z,25.20
2023-11-12T08:56:56.291Z,25.10
2023-11-12T08:59:26.858Z,25.80
2023-11-12T09:01:56.427Z,25.80
2023-11-12T09:04:26.780Z,26.10
2023-11-12T09:06:56.906Z,26.20
2023-11-12T09:09:26.587Z,26.30
2023-11-12T09:43:18.403Z,27.70
2023-11-12T09:45:49.150Z,27.80
2023-11-12T09:48:26.712Z,27.70
2023-11-12T09:50:56.559Z,27.90
2023-11-12T09:53:27.319Z,27.90
2023-11-12T09:55:58.173Z,28.40
2023-11-12T09:58:27.805Z,28.40
2023-11-12T10:00:59.941Z,28.50
2023-11-12T10:03:30.860Z,28.60
2023-11-12T10:06:04.460Z,28.60
2023-11-12T10:08:38.489Z,29.00
2023-11-12T10:11:18.755Z,28.90
2023-11-12T10:13:48.783Z,29.10
2023-11-12T10:16:34.443Z,29.20
2023-11-12T10:19:16.169Z,29.40
2023-11-12T10:21:56.985Z,29.50
2023-11-12T10:24:27.774Z,29.40
2023-11-12T10:27:06.127Z,29.40
2023-11-12T10:29:35.617Z,29.40
2023-11-12T10:32:05.148Z,29.60
2023-11-12T10:34:36.772Z,29.50
2023-11-12T10:37:16.982Z,29.60
2023-11-12T10:39:47.318Z,29.60
2023-11-12T10:42:25.124Z,29.70
2023-11-12T19:42:58.405Z,61.50
2023-11-12T19:45:27.952Z,61.80
2023-11-12T19:47:58.803Z,62.10
2023-11-12T19:50:29.021Z,61.90
2023-11-12T19:52:59.606Z,62.30
2023-11-12T19:55:29.064Z,61.90
2023-11-12T19:57:59.739Z,62.60
2023-11-12T20:00:29.563Z,62.20
2023-11-12T20:02:59.100Z,61.60
2023-11-12T20:05:28.629Z,61.90
2023-11-12T20:07:58.724Z,62.50
2023-11-12T20:10:28.199Z,61.40
2023-11-12T20:12:57.738Z,60.30
2023-11-12T20:15:28.235Z,60.60
2023-11-12T20:17:58.005Z,61.30
2023-11-12T20:20:28.998Z,61.00
2023-11-12T20:22:58.965Z,61.10
2023-11-12T20:25:28.646Z,61.20
2023-11-12T20:27:59.709Z,60.30
2023-11-12T20:30:30.869Z,60.50
2023-11-12T20:33:00.582Z,60.40
2023-11-12T20:35:31.717Z,60.50
2023-11-12T20:38:02.346Z,60.10
2023-11-12T20:40:32.875Z,60.30
